Bookmark and Share
Track history (hours):
 

Luhe

Last reported at 2014-Apr-23 09:33 UTC. Time now 2014-Apr-23 09:44 UTC.
Position N 44°06' E 009°51'.

Length 280 m; draft 10.7 m.

Type: Cargo ship. MMSI: 354812000.

NotesDate/timePositionNaut miles runAvg speedWind from/ knotsBaromVisibWave heightAir tempDewpointWater temp
2014-Apr-23 09:33N 44°06' E 009°51'0 0.0
2014-Apr-23 08:33N 44°06' E 009°51'0 0.0
2014-Apr-23 07:33N 44°06' E 009°51'0 0.0
2014-Apr-23 06:30N 44°06' E 009°51'0 0.0
2014-Apr-23 05:30N 44°06' E 009°51'0 0.0
2014-Apr-23 04:33N 44°06' E 009°51'0 0.0
2014-Apr-23 03:33N 44°06' E 009°51'0 0.0
2014-Apr-23 02:33N 44°06' E 009°51'0 0.0
2014-Apr-23 01:33N 44°06' E 009°51'0 0.0
2014-Apr-23 00:30N 44°06' E 009°51'0 0.0
2014-Apr-22 23:33N 44°06' E 009°51'0 0.0
2014-Apr-22 22:33N 44°06' E 009°51'0 0.0
2014-Apr-22 21:33N 44°06' E 009°51'0 0.0
2014-Apr-22 20:33N 44°06' E 009°51'0 0.0
2014-Apr-22 19:33N 44°06' E 009°51'0 0.0
2014-Apr-22 18:33N 44°06' E 009°51'0 0.1
2014-Apr-22 17:33N 44°06' E 009°51'6 5.7
2014-Apr-22 16:33N 44°02' E 009°55'0 0.5
2014-Apr-22 15:33N 44°01' E 009°56'4 4.2
2014-Apr-22 14:33N 43°57' E 009°56'9 8.9
2014-Apr-22 13:33N 43°49' E 009°52'9 9.0
2014-Apr-22 12:33N 43°40' E 009°48'8 7.9
2014-Apr-22 11:33N 43°33' E 009°45'8 8.2
2014-Apr-22 10:33N 43°25' E 009°45'6 6.5
2014-Apr-22 09:33N 43°19' E 009°49'8 7.5
2014-Apr-22 08:33N 43°20' E 009°59'1110.7
2014-Apr-22 07:34N 43°28' E 010°09'9 8.9
2014-Apr-22 06:33N 43°34' E 010°18'1 0.7
2014-Apr-22 05:31N 43°34' E 010°18'0 0.0
2014-Apr-22 04:31N 43°34' E 010°18'0 0.0
2014-Apr-22 03:28N 43°34' E 010°18'0 0.0
2014-Apr-22 02:31N 43°34' E 010°18'0 0.0
2014-Apr-22 01:31N 43°34' E 010°18'0 0.0
2014-Apr-22 00:31N 43°34' E 010°18'0 0.0
2014-Apr-21 23:31N 43°34' E 010°18'0 0.0
2014-Apr-21 22:31N 43°34' E 010°18'0 0.0
2014-Apr-21 21:31N 43°34' E 010°18'0 0.0
2014-Apr-21 20:31N 43°34' E 010°18'0 0.0
2014-Apr-21 19:31N 43°34' E 010°18'0 0.0
2014-Apr-21 18:31N 43°34' E 010°18'0 0.0
2014-Apr-21 17:31N 43°34' E 010°18'0 0.0
2014-Apr-21 16:31N 43°34' E 010°18'0 0.0
2014-Apr-21 15:31N 43°34' E 010°18'0 0.0
2014-Apr-21 14:31N 43°34' E 010°18'0 0.0
2014-Apr-21 13:31N 43°34' E 010°18'0 0.0
2014-Apr-21 12:31N 43°34' E 010°18'0 0.0
2014-Apr-21 11:31N 43°34' E 010°18'0 0.0
2014-Apr-21 10:31N 43°34' E 010°18'0 0.0
2014-Apr-21 09:31N 43°34' E 010°18'0 0.0
2014-Apr-21 08:31N 43°34' E 010°18'0 0.0
2014-Apr-21 07:31N 43°34' E 010°18'1 1.5
2014-Apr-21 06:34N 43°33' E 010°17'6 6.3
2014-Apr-21 05:34N 43°28' E 010°13'10 9.9
2014-Apr-21 04:34N 43°18' E 010°09'1514.4
2014-Apr-21 03:33N 43°04' E 010°05'2814.0
2014-Apr-21 01:31N 42°36' E 010°15'1715.8
2014-Apr-21 00:27N 42°25' E 010°32'8316.2
2014-Apr-20 19:19N 41°27' E 011°52'1417.9
2014-Apr-20 18:33N 41°18' E 012°06'2017.7
2014-Apr-20 17:27N 41°05' E 012°25'1617.9
2014-Apr-20 16:33N 40°54' E 012°41'3517.2
2014-Apr-20 14:33N 40°42' E 013°24'1717.6
2014-Apr-20 13:33N 40°39' E 013°46'1616.0
2014-Apr-20 12:33N 40°42' E 014°07'1111.2
2014-Apr-20 11:32N 40°50' E 014°17'0 0.1
2014-Apr-20 10:28N 40°50' E 014°17'0 0.0
2014-Apr-20 09:28N 40°50' E 014°17'0 0.0
2014-Apr-20 08:31N 40°50' E 014°17'0 0.0
2014-Apr-20 07:31N 40°50' E 014°17'0 0.0
2014-Apr-20 06:13N 40°50' E 014°17'0 0.0
2014-Apr-20 05:31N 40°50' E 014°17'0 0.0
2014-Apr-20 04:25N 40°50' E 014°17'0 0.0
2014-Apr-20 03:31N 40°50' E 014°17'0 0.0
2014-Apr-20 02:31N 40°50' E 014°17'0 0.0
2014-Apr-20 01:31N 40°50' E 014°17'0 0.0
2014-Apr-20 00:31N 40°50' E 014°17'0 0.0
2014-Apr-19 23:22N 40°50' E 014°17'0 0.0
2014-Apr-19 21:07N 40°50' E 014°17'0 0.0
2014-Apr-19 17:28N 40°50' E 014°17'0 0.0
2014-Apr-19 16:28N 40°50' E 014°17'0 0.0
2014-Apr-19 14:07N 40°50' E 014°17'0 0.0
2014-Apr-19 12:22N 40°50' E 014°17'0 0.0
2014-Apr-19 11:22N 40°50' E 014°17'0 0.0
2014-Apr-19 09:22N 40°50' E 014°17'0 0.0
2014-Apr-19 08:25N 40°50' E 014°17'0 0.0
2014-Apr-19 07:28N 40°50' E 014°17'0 0.0
2014-Apr-19 05:19N 40°50' E 014°17'0 0.0
2014-Apr-19 04:25N 40°50' E 014°17'0 0.0
2014-Apr-19 01:25N 40°50' E 014°17'0 0.0
2014-Apr-19 00:25N 40°50' E 014°17'0 0.0
2014-Apr-18 22:31N 40°50' E 014°17'0 0.0
2014-Apr-18 20:04N 40°50' E 014°17'0 0.0
2014-Apr-18 19:31N 40°50' E 014°17'0 0.0
2014-Apr-18 18:10N 40°50' E 014°17'0 0.6
2014-Apr-18 17:33N 40°50' E 014°17'1 1.1
2014-Apr-18 16:33N 40°49' E 014°16'0 0.1
2014-Apr-18 15:17N 40°49' E 014°16'0 0.1
2014-Apr-18 14:23N 40°49' E 014°16'0 0.1
2014-Apr-18 13:26N 40°49' E 014°16'0 0.0
2014-Apr-18 12:32N 40°49' E 014°16'0 0.0
2014-Apr-18 11:32N 40°49' E 014°16'0 0.1
2014-Apr-18 10:33N 40°49' E 014°16'2 2.2
2014-Apr-18 09:33N 40°47' E 014°16'9 8.9
2014-Apr-18 08:33N 40°39' E 014°12'9 9.1
2014-Apr-18 07:33N 40°30' E 014°09'1010.4
2014-Apr-18 06:33N 40°21' E 014°16'121 8.4
2014-Apr-17 16:06N 38°35' E 015°32'13 7.3
2014-Apr-17 14:17N 38°23' E 015°39'9 7.8
2014-Apr-17 13:08N 38°14' E 015°38'1012.4
2014-Apr-17 12:19N 38°04' E 015°36'7 9.2
2014-Apr-17 11:32N 37°57' E 015°37'  
2014-Apr-14 09:33N 31°21' E 032°22'  

Dump ship's entire track history

sailing weather and tide predictions

Luhe — 3FVZ6 — position and weather